Time;durP1;ratioP1;P1;durP2;ratioP2;P2;SDS_P1;SDS_P2;PMS_P1;PMS_P2;Temp;Humidity;BMP_temperature;BMP_pressure;BME280_temperature;BME280_humidity;BME280_pressure;Samples;Min_cycle;Max_cycle;Signal;HPM_P1;HPM_P2
2023/02/24 00:01:24;;;;;;;13.90;2.80;;;;;;;3.93;100.00;148438.16;5032405;28;20495;-65
2023/02/24 00:03:51;;;;;;;9.73;2.40;;;;;;;3.93;100.00;148439.44;5031645;28;20040;-65
2023/02/24 00:06:17;;;;;;;14.63;2.77;;;;;;;3.93;100.00;148438.16;5031699;28;20037;-64
2023/02/24 00:08:42;;;;;;;11.57;2.80;;;;;;;3.92;100.00;148436.88;5029043;28;20516;-65
2023/02/24 00:11:10;;;;;;;12.73;2.47;;;;;;;3.94;100.00;148440.75;5032268;28;20075;-65
2023/02/24 00:13:35;;;;;;;18.10;2.30;;;;;;;3.93;100.00;148439.44;5029637;28;20558;-65
2023/02/24 00:16:02;;;;;;;9.97;2.10;;;;;;;3.95;100.00;148444.59;5031464;28;20033;-65
2023/02/24 00:18:27;;;;;;;12.57;2.30;;;;;;;3.91;100.00;148434.31;5032428;28;20485;-65
2023/02/24 00:20:56;;;;;;;13.63;2.57;;;;;;;3.89;100.00;148429.16;5031896;28;20044;-65
2023/02/24 00:23:22;;;;;;;15.37;2.40;;;;;;;3.86;100.00;148421.41;5031078;28;20473;-64
2023/02/24 00:25:48;;;;;;;12.73;2.77;;;;;;;3.86;100.00;148420.13;5033196;28;20036;-64
2023/02/24 00:28:13;;;;;;;15.63;2.73;;;;;;;3.88;100.00;148426.59;5031383;28;20511;-65
2023/02/24 00:30:39;;;;;;;15.43;3.07;;;;;;;3.89;100.00;148427.88;5028793;28;20022;-65
2023/02/24 00:33:05;;;;;;;11.10;2.63;;;;;;;3.83;100.00;148413.69;5029277;28;20052;-65
2023/02/24 00:35:31;;;;;;;14.50;3.10;;;;;;;3.84;100.00;148416.25;5031927;28;20056;-65
2023/02/24 00:37:56;;;;;;;17.17;2.80;;;;;;;3.87;100.00;148422.69;5031597;28;20068;-65
2023/02/24 00:40:25;;;;;;;22.90;4.00;;;;;;;3.85;100.00;148418.84;5030878;28;20032;-65
2023/02/24 00:42:52;;;;;;;19.00;2.73;;;;;;;3.83;100.00;148414.97;5030791;28;20131;-65
2023/02/24 00:45:18;;;;;;;16.07;2.60;;;;;;;3.87;100.00;148423.97;5031588;28;20017;-65
2023/02/24 00:47:43;;;;;;;13.40;3.53;;;;;;;3.85;100.00;148418.84;5032511;28;20022;-65
2023/02/24 00:50:09;;;;;;;14.57;2.53;;;;;;;3.86;100.00;148421.41;5029798;28;20025;-65
2023/02/24 00:52:35;;;;;;;11.03;2.10;;;;;;;3.90;100.00;148431.75;5031054;28;20578;-65
2023/02/24 00:55:03;;;;;;;14.00;3.23;;;;;;;3.90;100.00;148431.75;5031448;28;20044;-65
2023/02/24 00:57:28;;;;;;;14.03;2.40;;;;;;;3.80;100.00;148407.25;5032064;28;20025;-65
2023/02/24 00:59:57;;;;;;;16.20;2.17;;;;;;;3.80;100.00;148407.25;5031549;28;20381;-65
2023/02/24 01:02:22;;;;;;;11.07;1.87;;;;;;;3.77;100.00;148398.28;5029362;28;20029;-65
2023/02/24 01:04:49;;;;;;;9.20;1.70;;;;;;;3.79;100.00;148403.41;5030830;28;21248;-65
2023/02/24 01:07:15;;;;;;;10.57;2.00;;;;;;;3.70;100.00;148380.22;5030657;28;20531;-65
2023/02/24 01:09:40;;;;;;;12.20;2.53;;;;;;;3.66;100.00;148369.94;5032568;28;20021;-65
2023/02/24 01:12:37;;;;;;;12.60;2.30;;;;;;;3.65;100.00;148367.38;5029184;28;20388;-65
2023/02/24 01:15:03;;;;;;;11.13;1.70;;;;;;;3.62;100.00;148359.59;5031440;28;20119;-65
2023/02/24 01:17:29;;;;;;;8.87;1.70;;;;;;;3.55;100.00;148341.63;5030274;28;20033;-65
2023/02/24 01:19:59;;;;;;;13.17;1.87;;;;;;;3.52;100.00;148336.47;5030910;28;20473;-65
2023/02/24 01:22:25;;;;;;;10.37;2.03;;;;;;;3.62;100.00;148360.91;5029786;28;20075;-65
2023/02/24 01:24:51;;;;;;;12.73;2.40;;;;;;;3.63;100.00;148362.19;5030836;28;20029;-64
2023/02/24 01:27:18;;;;;;;17.90;1.90;;;;;;;3.59;100.00;148351.91;5030220;28;20029;-65
2023/02/24 01:29:47;;;;;;;8.07;1.80;;;;;;;3.63;100.00;148363.47;5031843;28;20025;-64
2023/02/24 01:32:15;;;;;;;12.53;2.23;;;;;;;3.66;100.00;148369.94;5030722;28;20044;-65
2023/02/24 01:34:41;;;;;;;10.07;1.90;;;;;;;3.65;100.00;148367.38;5031414;28;20029;-65
2023/02/24 01:37:06;;;;;;;13.47;1.90;;;;;;;3.68;100.00;148376.38;5030665;28;20032;-65
2023/02/24 01:39:32;;;;;;;10.87;1.77;;;;;;;3.73;100.00;148387.94;5031788;28;20742;-65
2023/02/24 01:42:00;;;;;;;8.97;1.80;;;;;;;3.71;100.00;148384.06;5027655;28;20104;-65
2023/02/24 01:44:31;;;;;;;8.73;2.00;;;;;;;3.69;100.00;148377.66;5028538;28;20029;-65
2023/02/24 01:46:56;;;;;;;12.80;2.03;;;;;;;3.71;100.00;148382.78;5027150;28;20078;-64
2023/02/24 01:49:34;;;;;;;10.70;2.17;;;;;;;3.66;100.00;148369.94;5030924;28;20413;-65
2023/02/24 01:52:07;;;;;;;12.60;1.90;;;;;;;3.73;100.00;148387.94;5029729;28;20808;-65
2023/02/24 01:54:41;;;;;;;12.87;2.67;;;;;;;3.70;100.00;148380.22;5029652;28;20434;-64
2023/02/24 01:57:15;;;;;;;10.63;2.13;;;;;;;3.69;100.00;148377.66;5027870;28;20464;-65
2023/02/24 01:59:42;;;;;;;12.30;1.70;;;;;;;3.65;100.00;148367.38;5029905;28;20044;-64
2023/02/24 02:02:08;;;;;;;7.30;1.70;;;;;;;3.61;100.00;148357.03;5029457;28;20041;-63
2023/02/24 02:04:43;;;;;;;12.10;1.80;;;;;;;3.53;100.00;148337.75;5035025;22;20050;-73
2023/02/24 02:07:14;;;;;;;17.40;2.30;;;;;;;3.36;100.00;148293.97;5004789;28;20065;-73
2023/02/24 02:09:41;;;;;;;7.63;2.40;;;;;;;3.32;100.00;148284.97;5008931;28;20037;-72
2023/02/24 02:12:08;;;;;;;10.57;1.50;;;;;;;3.36;100.00;148295.25;5011850;28;20057;-72
2023/02/24 02:14:37;;;;;;;8.23;1.40;;;;;;;3.35;100.00;148292.69;5057073;22;20197;-73
2023/02/24 02:17:02;;;;;;;11.27;1.73;;;;;;;3.50;100.00;148331.28;5032833;28;20034;-72
2023/02/24 02:19:54;;;;;;;11.60;1.70;;;;;;;3.46;100.00;148321.00;5030392;28;20405;-72
2023/02/24 02:22:50;;;;;;;7.15;1.65;;;;;;;3.39;100.00;148303.00;5032680;28;20044;-73
2023/02/24 02:26:00;;;;;;;9.63;1.80;;;;;;;3.40;100.00;148305.59;5029390;28;20028;-72
2023/02/24 02:29:03;;;;;;;9.40;1.73;;;;;;;3.41;100.00;148308.16;5031451;28;20029;-72
2023/02/24 02:31:58;;;;;;;6.63;1.50;;;;;;;3.44;100.00;148315.88;5029842;28;20033;-72
2023/02/24 02:34:56;;;;;;;16.77;2.10;;;;;;;3.42;100.00;148310.72;5028920;28;20151;-73
2023/02/24 02:38:02;;;;;;;7.67;1.70;;;;;;;3.40;100.00;148304.31;5033825;28;20044;-73
2023/02/24 02:40:36;;;;;;;10.53;1.77;;;;;;;3.33;100.00;148287.53;5032002;28;20044;-73
2023/02/24 02:43:07;;;;;;;10.83;1.77;;;;;;;3.26;100.00;148269.50;5029829;28;20044;-73
2023/02/24 02:45:46;;;;;;;9.88;1.75;;;;;;;3.21;100.00;148256.66;5031051;28;20052;-72
2023/02/24 02:48:20;;;;;;;5.80;1.33;;;;;;;3.17;100.00;148246.38;5029945;28;20040;-72
2023/02/24 02:50:55;;;;;;;5.17;1.30;;;;;;;3.15;100.00;148242.53;5034289;28;20120;-72
2023/02/24 02:53:48;;;;;;;11.97;1.80;;;;;;;3.20;100.00;148254.09;5026866;28;20358;-72
2023/02/24 02:56:34;;;;;;;7.57;2.03;;;;;;;3.22;100.00;148259.22;5033362;28;20396;-73
2023/02/24 02:59:01;;;;;;;9.73;1.50;;;;;;;3.22;100.00;148259.22;5030146;28;20377;-72
2023/02/24 03:01:30;;;;;;;12.43;1.80;;;;;;;3.31;100.00;148282.41;5035228;28;20022;-72
2023/02/24 03:04:06;;;;;;;13.33;1.67;;;;;;;3.26;100.00;148268.22;5032470;28;20033;-72
2023/02/24 03:06:34;;;;;;;13.33;1.67;;;;;;;3.20;100.00;148255.38;5028801;28;20500;-73
2023/02/24 03:09:11;;;;;;;8.37;1.70;;;;;;;3.16;100.00;148243.81;5029627;28;20048;-72
2023/02/24 03:11:40;;;;;;;8.40;1.60;;;;;;;3.12;100.00;148234.78;5029331;28;20033;-72
2023/02/24 03:14:10;;;;;;;7.90;1.40;;;;;;;3.06;100.00;148218.06;5031450;28;20095;-72
2023/02/24 03:16:38;;;;;;;8.20;1.87;;;;;;;2.96;100.00;148192.34;5029231;28;20112;-72
2023/02/24 03:19:07;;;;;;;8.10;1.77;;;;;;;2.93;100.00;148187.19;5028289;28;20033;-73
2023/02/24 03:21:39;;;;;;;7.93;1.40;;;;;;;2.90;100.00;148179.44;5039194;28;20028;-75
2023/02/24 03:24:06;;;;;;;8.70;1.83;;;;;;;2.90;100.00;148179.44;5027557;28;20025;-74
2023/02/24 03:26:50;;;;;;;9.13;1.83;;;;;;;2.91;100.00;148182.06;5028428;28;20025;-75
2023/02/24 03:29:25;;;;;;;4.67;1.30;;;;;;;2.92;100.00;148184.63;5036568;28;20396;-75
2023/02/24 03:31:58;;;;;;;10.83;1.33;;;;;;;2.92;100.00;148184.63;5029748;28;20037;-76
2023/02/24 03:34:38;;;;;;;7.30;1.43;;;;;;;2.83;100.00;148161.47;5027852;28;20491;-75
2023/02/24 03:37:04;;;;;;;6.70;1.73;;;;;;;2.87;100.00;148171.72;5035713;28;20033;-75
2023/02/24 03:39:31;;;;;;;11.47;2.50;;;;;;;2.89;100.00;148176.88;5030109;28;20031;-75
2023/02/24 03:42:09;;;;;;;11.97;1.80;;;;;;;2.93;100.00;148187.19;5026293;28;20446;-75
2023/02/24 03:44:34;;;;;;;11.57;1.63;;;;;;;3.00;100.00;148202.59;5032848;28;20029;-73
2023/02/24 03:47:01;;;;;;;12.73;1.97;;;;;;;2.98;100.00;148198.75;5040185;28;20376;-73
2023/02/24 03:49:26;;;;;;;8.23;2.10;;;;;;;3.03;100.00;148210.31;5032947;28;20106;-73
2023/02/24 03:52:11;;;;;;;9.03;1.73;;;;;;;3.02;100.00;148207.75;5030848;28;20072;-73
2023/02/24 03:55:08;;;;;;;9.47;1.87;;;;;;;3.04;100.00;148212.94;5036907;28;20021;-73
2023/02/24 03:58:06;;;;;;;6.43;1.60;;;;;;;3.08;100.00;148224.50;5027174;28;20029;-73
2023/02/24 04:00:37;;;;;;;8.77;1.90;;;;;;;3.10;100.00;148228.34;5019675;28;20045;-73
2023/02/24 04:03:24;;;;;;;4.57;1.60;;;;;;;3.13;100.00;148236.06;5046166;28;20029;-73
2023/02/24 04:06:18;;;;;;;4.73;1.50;;;;;;;3.16;100.00;148243.81;5038264;28;20040;-73
2023/02/24 04:08:52;;;;;;;8.00;1.37;;;;;;;3.14;100.00;148239.91;5029512;28;20696;-72
2023/02/24 04:11:30;;;;;;;9.63;2.60;;;;;;;3.19;100.00;148251.53;5028852;28;20044;-73
2023/02/24 04:14:08;;;;;;;5.23;1.10;;;;;;;3.17;100.00;148246.38;5028837;28;20451;-73
2023/02/24 04:16:39;;;;;;;8.30;1.80;;;;;;;3.21;100.00;148256.66;5031809;28;20511;-73
2023/02/24 04:19:14;;;;;;;9.70;2.03;;;;;;;3.25;100.00;148266.94;5030849;28;20483;-73
2023/02/24 04:21:44;;;;;;;6.97;1.27;;;;;;;3.22;100.00;148260.50;5029797;28;20036;-73
2023/02/24 04:24:14;;;;;;;12.97;1.90;;;;;;;3.19;100.00;148251.53;5032881;28;20063;-73
2023/02/24 04:26:43;;;;;;;8.50;1.50;;;;;;;3.13;100.00;148237.34;5031151;28;20164;-72
2023/02/24 04:29:16;;;;;;;8.23;1.60;;;;;;;3.17;100.00;148247.66;5032445;28;20029;-73
2023/02/24 04:31:45;;;;;;;10.27;1.80;;;;;;;3.13;100.00;148236.06;5031848;28;20018;-73
2023/02/24 04:34:11;;;;;;;9.27;1.40;;;;;;;3.07;100.00;148220.63;5032518;28;20034;-73
2023/02/24 04:36:37;;;;;;;8.43;1.50;;;;;;;3.14;100.00;148239.91;5033794;28;20036;-73
2023/02/24 04:39:03;;;;;;;4.43;1.20;;;;;;;3.10;100.00;148228.34;5032041;28;20026;-73
2023/02/24 04:41:29;;;;;;;9.07;1.90;;;;;;;3.14;100.00;148238.63;5032877;28;20052;-73
2023/02/24 04:43:55;;;;;;;7.70;1.80;;;;;;;3.04;100.00;148212.94;5032210;28;20029;-73
2023/02/24 04:46:22;;;;;;;6.20;1.70;;;;;;;3.01;100.00;148206.47;5039563;28;20480;-73
2023/02/24 04:48:49;;;;;;;7.17;1.30;;;;;;;2.98;100.00;148197.47;5030754;28;20025;-72
2023/02/24 04:51:15;;;;;;;7.10;2.03;;;;;;;3.05;100.00;148215.50;5031818;28;20018;-73
2023/02/24 04:53:40;;;;;;;6.77;1.40;;;;;;;3.06;100.00;148218.06;5032051;28;20025;-73
2023/02/24 04:56:07;;;;;;;7.27;1.53;;;;;;;3.07;100.00;148220.63;5038142;28;20064;-73
2023/02/24 04:58:35;;;;;;;7.33;1.30;;;;;;;3.14;100.00;148238.63;5030022;28;20056;-73
2023/02/24 05:01:07;;;;;;;10.63;2.07;;;;;;;3.11;100.00;148230.91;5028676;28;20083;-73
2023/02/24 05:03:34;;;;;;;8.43;2.00;;;;;;;3.15;100.00;148241.19;5029483;28;20036;-73
2023/02/24 05:06:00;;;;;;;12.10;1.90;;;;;;;3.14;100.00;148238.63;5029373;28;20044;-72
2023/02/24 05:08:27;;;;;;;10.10;1.63;;;;;;;3.13;100.00;148237.34;5030401;28;20030;-73
2023/02/24 05:10:55;;;;;;;6.17;1.57;;;;;;;3.07;100.00;148220.63;5032681;28;20108;-73
2023/02/24 05:13:26;;;;;;;9.40;1.50;;;;;;;3.12;100.00;148233.47;5031737;28;20496;-73
2023/02/24 05:15:56;;;;;;;10.57;2.75;;;;;;;3.10;100.00;148228.34;5032354;28;20092;-72
2023/02/24 05:18:22;;;;;;;5.47;1.33;;;;;;;3.17;100.00;148246.38;5032813;28;20041;-72
2023/02/24 05:23:43;;;;;;;7.67;1.70;;;;;;;3.16;100.00;148243.81;5036513;28;20422;-73
2023/02/24 05:26:11;;;;;;;5.05;1.38;;;;;;;3.14;100.00;148239.91;5032832;28;20389;-72
2023/02/24 05:28:39;;;;;;;8.07;1.60;;;;;;;3.17;100.00;148246.38;5031647;28;20028;-72
2023/02/24 05:31:15;;;;;;;11.50;1.67;;;;;;;3.20;100.00;148254.09;5031830;28;20026;-73
2023/02/24 05:33:42;;;;;;;11.80;1.70;;;;;;;3.21;100.00;148257.94;5031157;28;20025;-72
2023/02/24 05:36:16;;;;;;;5.73;1.70;;;;;;;3.23;100.00;148261.81;5040317;28;20440;-73
2023/02/24 05:38:45;;;;;;;9.43;1.70;;;;;;;3.23;100.00;148261.81;5046404;28;20028;-73
2023/02/24 05:41:16;;;;;;;5.87;1.33;;;;;;;3.20;100.00;148254.09;5050240;28;20025;-73
2023/02/24 05:43:54;;;;;;;8.65;1.75;;;;;;;3.21;100.00;148256.66;5035452;28;20060;-73
2023/02/24 05:46:27;;;;;;;7.23;1.73;;;;;;;3.19;100.00;148251.53;5030517;28;20485;-73
2023/02/24 05:48:56;;;;;;;5.93;1.20;;;;;;;3.20;100.00;148255.38;5039376;28;20162;-73
2023/02/24 05:51:23;;;;;;;10.07;1.60;;;;;;;3.17;100.00;148246.38;5030349;28;20476;-73
2023/02/24 05:53:54;;;;;;;7.57;1.70;;;;;;;3.17;100.00;148246.38;5030934;28;20122;-73
2023/02/24 05:56:21;;;;;;;8.48;1.95;;;;;;;3.18;100.00;148248.94;5032989;28;20044;-73
2023/02/24 05:58:48;;;;;;;8.13;1.50;;;;;;;3.20;100.00;148255.38;5039089;28;20040;-74
2023/02/24 06:01:15;;;;;;;9.37;1.37;;;;;;;3.20;100.00;148254.09;5029491;28;20033;-73
2023/02/24 06:03:48;;;;;;;7.73;1.70;;;;;;;3.22;100.00;148260.50;5033265;28;20021;-73
2023/02/24 06:06:16;;;;;;;4.87;1.10;;;;;;;3.23;100.00;148261.81;5030322;28;20032;-73
2023/02/24 06:08:48;;;;;;;10.10;1.90;;;;;;;3.27;100.00;148272.13;5030127;28;20044;-73
2023/02/24 06:11:16;;;;;;;8.63;2.10;;;;;;;3.26;100.00;148268.22;5033227;28;20184;-73
2023/02/24 06:13:46;;;;;;;9.93;1.93;;;;;;;3.27;100.00;148270.78;5036282;28;20084;-73
2023/02/24 06:16:13;;;;;;;6.83;1.50;;;;;;;3.32;100.00;148283.69;5030276;28;20062;-73
2023/02/24 06:18:39;;;;;;;7.97;1.80;;;;;;;3.30;100.00;148279.84;5033653;28;20598;-73
2023/02/24 06:21:06;;;;;;;7.27;1.60;;;;;;;3.32;100.00;148283.69;5041128;28;20064;-73
2023/02/24 06:23:32;;;;;;;5.97;1.60;;;;;;;3.33;100.00;148287.53;5039129;28;20421;-73
2023/02/24 06:26:03;;;;;;;5.93;1.50;;;;;;;3.33;100.00;148287.53;5042647;28;20064;-73
2023/02/24 06:28:29;;;;;;;8.07;1.70;;;;;;;3.36;100.00;148293.97;5031340;28;20025;-73
2023/02/24 06:30:55;;;;;;;7.73;1.50;;;;;;;3.32;100.00;148284.97;5032282;28;20134;-73
2023/02/24 06:33:21;;;;;;;9.53;1.90;;;;;;;3.34;100.00;148288.81;5027690;28;20049;-73
2023/02/24 06:35:47;;;;;;;4.53;1.23;;;;;;;3.37;100.00;148297.81;5030989;28;20030;-73
2023/02/24 06:38:13;;;;;;;6.20;1.50;;;;;;;3.36;100.00;148295.25;5030791;28;20029;-73
2023/02/24 06:40:41;;;;;;;10.93;1.63;;;;;;;3.36;100.00;148293.97;5030976;28;20044;-73
2023/02/24 06:43:08;;;;;;;14.30;1.73;;;;;;;3.36;100.00;148295.25;5031520;28;20536;-73
2023/02/24 06:45:34;;;;;;;8.77;1.47;;;;;;;3.37;100.00;148297.81;5030812;28;20029;-73
2023/02/24 06:47:59;;;;;;;6.97;1.43;;;;;;;3.39;100.00;148303.00;5030565;28;20026;-73
2023/02/24 06:50:25;;;;;;;6.60;1.63;;;;;;;3.43;100.00;148312.00;5030579;28;20079;-73
2023/02/24 06:52:57;;;;;;;6.17;1.60;;;;;;;3.39;100.00;148301.69;5030252;28;20028;-73
2023/02/24 06:55:25;;;;;;;7.43;1.80;;;;;;;3.36;100.00;148295.25;5030773;28;20060;-71
2023/02/24 06:57:55;;;;;;;8.87;1.57;;;;;;;3.39;100.00;148301.69;5030926;28;20099;-72
2023/02/24 07:00:35;;;;;;;11.73;1.90;;;;;;;3.38;100.00;148299.09;5030395;28;20113;-73
2023/02/24 07:03:13;;;;;;;4.70;1.40;;;;;;;3.30;100.00;148279.84;5012195;28;20519;-73
2023/02/24 07:05:53;;;;;;;8.00;1.50;;;;;;;3.28;100.00;148274.69;5016346;28;20080;-72
2023/02/24 07:08:23;;;;;;;5.17;1.27;;;;;;;3.23;100.00;148261.81;5029469;28;20383;-73
2023/02/24 07:10:56;;;;;;;4.87;1.30;;;;;;;3.17;100.00;148246.38;5030746;28;20025;-73
2023/02/24 07:13:23;;;;;;;11.57;1.93;;;;;;;3.13;100.00;148236.06;5031495;28;20152;-73
2023/02/24 07:15:50;;;;;;;4.93;1.73;;;;;;;3.10;100.00;148228.34;5032180;28;20515;-73
2023/02/24 07:18:17;;;;;;;4.07;1.13;;;;;;;2.99;100.00;148200.03;5030113;28;20035;-72
2023/02/24 07:20:44;;;;;;;8.73;1.47;;;;;;;2.94;100.00;148189.75;5032512;28;20020;-73
2023/02/24 07:23:11;;;;;;;6.77;1.37;;;;;;;2.91;100.00;148180.78;5028254;28;20346;-72
2023/02/24 07:25:38;;;;;;;7.37;1.67;;;;;;;2.89;100.00;148176.88;5033147;28;20025;-73
2023/02/24 07:28:06;;;;;;;11.93;1.87;;;;;;;2.84;100.00;148164.03;5040748;28;20405;-73
2023/02/24 07:30:32;;;;;;;8.20;2.00;;;;;;;2.79;100.00;148151.19;5030653;28;20064;-73
2023/02/24 07:32:58;;;;;;;8.03;1.73;;;;;;;2.75;100.00;148140.84;5035645;28;20025;-72
2023/02/24 07:35:24;;;;;;;12.30;2.03;;;;;;;2.75;100.00;148140.84;5028399;28;20085;-72
2023/02/24 07:37:51;;;;;;;5.80;1.83;;;;;;;2.70;100.00;148128.00;5030355;28;20022;-72
2023/02/24 07:40:20;;;;;;;6.80;1.63;;;;;;;2.73;100.00;148135.72;5030382;28;20113;-72
2023/02/24 07:42:47;;;;;;;6.37;2.07;;;;;;;2.72;100.00;148131.88;5030146;28;20057;-72
2023/02/24 07:45:13;;;;;;;10.27;1.90;;;;;;;2.70;100.00;148128.00;5031037;28;20034;-72
2023/02/24 07:47:39;;;;;;;5.57;1.30;;;;;;;2.68;100.00;148122.88;5031531;28;20022;-70
2023/02/24 07:50:12;;;;;;;9.70;2.33;;;;;;;2.74;100.00;148138.28;5031496;28;20025;-73
2023/02/24 07:52:38;;;;;;;11.17;2.20;;;;;;;2.75;100.00;148140.84;5031669;28;20104;-72
2023/02/24 07:55:03;;;;;;;12.10;1.77;;;;;;;2.77;100.00;148146.00;5035474;28;20053;-72
2023/02/24 07:57:32;;;;;;;8.30;1.67;;;;;;;2.68;100.00;148122.88;5035117;28;20021;-72
2023/02/24 07:59:58;;;;;;;5.60;1.73;;;;;;;2.66;100.00;148117.69;5035008;28;20028;-71
2023/02/24 08:02:24;;;;;;;6.50;1.80;;;;;;;2.72;100.00;148133.16;5034743;28;20117;-72
2023/02/24 08:04:50;;;;;;;6.50;1.87;;;;;;;2.72;100.00;148131.88;5034950;28;20100;-72
2023/02/24 08:07:23;;;;;;;10.07;1.80;;;;;;;2.70;100.00;148128.00;5034589;28;20560;-72
2023/02/24 08:12:34;;;;;;;14.17;2.40;;;;;;;2.71;100.00;148130.59;5034605;28;20036;-72
2023/02/24 08:15:07;;;;;;;6.63;2.13;;;;;;;2.67;100.00;148120.31;5034650;28;20078;-72
2023/02/24 08:17:34;;;;;;;19.30;2.20;;;;;;;2.58;100.00;148098.44;5034670;28;20479;-71
2023/02/24 08:20:20;;;;;;;10.37;2.50;;;;;;;2.68;100.00;148122.88;5034450;28;20018;-73
2023/02/24 08:22:50;;;;;;;10.00;2.87;;;;;;;2.68;100.00;148122.88;5034276;28;20467;-72
2023/02/24 08:25:18;;;;;;;13.73;3.08;;;;;;;2.70;100.00;148128.00;5034208;28;20033;-72
2023/02/24 08:27:56;;;;;;;11.30;2.70;;;;;;;2.66;100.00;148117.69;5034527;28;20040;-72
2023/02/24 08:30:24;;;;;;;9.40;2.67;;;;;;;2.62;100.00;148107.44;5034200;28;20021;-73
2023/02/24 08:32:55;;;;;;;13.17;3.00;;;;;;;2.65;100.00;148115.13;5033692;28;20477;-72
2023/02/24 08:35:30;;;;;;;10.93;2.70;;;;;;;2.63;100.00;148110.00;5034166;28;20028;-73
2023/02/24 08:38:02;;;;;;;8.97;3.03;;;;;;;2.67;100.00;148120.31;5034116;28;20028;-72
2023/02/24 08:43:18;;;;;;;10.77;3.45;;;;;;;2.60;100.00;148103.56;5033763;28;20017;-73
2023/02/24 08:45:49;;;;;;;6.57;2.37;;;;;;;2.51;100.00;148079.13;5033499;28;20417;-72
2023/02/24 08:48:25;;;;;;;11.80;2.95;;;;;;;2.52;100.00;148082.97;5033810;28;20037;-73
2023/02/24 08:50:58;;;;;;;10.87;3.60;;;;;;;2.50;100.00;148076.56;5034389;28;20052;-71
2023/02/24 08:53:30;;;;;;;12.83;3.43;;;;;;;2.47;100.00;148070.13;5034063;28;20029;-73
2023/02/24 08:55:57;;;;;;;7.22;3.03;;;;;;;2.35;100.00;148040.56;5033522;28;20037;-71
2023/02/24 08:58:30;;;;;;;6.23;1.70;;;;;;;2.39;100.00;148049.53;5034106;28;20478;-72
2023/02/24 09:00:57;;;;;;;7.03;2.40;;;;;;;2.42;100.00;148055.97;5034026;28;20028;-72
2023/02/24 09:03:28;;;;;;;11.17;3.53;;;;;;;2.51;100.00;148079.13;5033453;28;20021;-72
2023/02/24 09:06:07;;;;;;;6.78;3.30;;;;;;;2.44;100.00;148061.16;5034086;28;20025;-72
2023/02/24 09:08:37;;;;;;;8.90;3.50;;;;;;;2.44;100.00;148062.44;5033627;28;20060;-72
2023/02/24 09:11:06;;;;;;;11.77;4.83;;;;;;;2.46;100.00;148066.28;5033805;28;20116;-72
2023/02/24 09:13:56;;;;;;;10.00;3.83;;;;;;;2.56;100.00;148092.00;5034037;28;20046;-72
2023/02/24 09:16:23;;;;;;;7.13;3.27;;;;;;;2.47;100.00;148068.84;5033198;28;20026;-71
2023/02/24 09:24:06;;;;;;;16.30;4.83;;;;;;;2.56;100.00;148092.00;5033857;28;20125;-72
2023/02/24 09:26:42;;;;;;;16.23;5.00;;;;;;;2.57;100.00;148094.59;5033768;28;20465;-73
2023/02/24 09:32:14;;;;;;;12.53;5.73;;;;;;;2.59;100.00;148099.72;5033207;28;20036;-72
2023/02/24 09:34:44;;;;;;;19.03;3.67;;;;;;;2.47;100.00;148068.84;5033776;28;20372;-72
2023/02/24 09:37:23;;;;;;;12.67;4.90;;;;;;;2.61;100.00;148104.84;5033411;28;20029;-72
2023/02/24 09:44:55;;;;;;;12.87;5.13;;;;;;;2.79;100.00;148151.19;5033336;28;20108;-72
2023/02/24 09:47:55;;;;;;;8.93;3.97;;;;;;;2.60;100.00;148102.28;5033140;28;20025;-71
2023/02/24 09:50:29;;;;;;;10.70;5.10;;;;;;;2.64;100.00;148112.56;5033249;28;20393;-71
2023/02/24 09:53:12;;;;;;;9.27;4.43;;;;;;;2.58;100.00;148097.16;5032926;28;20104;-70
2023/02/24 09:55:59;;;;;;;12.10;4.77;;;;;;;2.59;100.00;148099.72;5032751;28;20033;-71
2023/02/24 09:58:48;;;;;;;8.70;3.80;;;;;;;2.48;100.00;148072.72;5012918;28;20072;-70
2023/02/24 10:01:22;;;;;;;8.77;3.43;;;;;;;2.51;100.00;148079.13;5013258;28;20036;-71
2023/02/24 10:04:03;;;;;;;8.73;3.60;;;;;;;2.61;100.00;148104.84;5031164;28;20029;-72
2023/02/24 10:06:35;;;;;;;9.73;4.90;;;;;;;2.62;100.00;148108.72;5032642;28;20028;-71
2023/02/24 10:09:11;;;;;;;8.77;3.27;;;;;;;2.55;100.00;148090.72;5032878;28;20025;-71
2023/02/24 10:11:54;;;;;;;6.43;3.20;;;;;;;2.57;100.00;148094.59;5032592;28;20079;-71
2023/02/24 10:14:51;;;;;;;7.07;3.03;;;;;;;2.56;100.00;148092.00;5032698;28;20029;-70
2023/02/24 10:17:38;;;;;;;5.63;2.90;;;;;;;2.49;100.00;148074.00;5026372;28;20073;-71
2023/02/24 10:20:12;;;;;;;7.57;3.63;;;;;;;2.53;100.00;148085.53;5032746;28;20021;-72
2023/02/24 10:22:39;;;;;;;6.73;3.03;;;;;;;2.51;100.00;148079.13;5032668;28;20120;-70
2023/02/24 10:25:41;;;;;;;8.17;3.80;;;;;;;2.64;100.00;148113.84;5032254;28;20057;-71
2023/02/24 10:28:22;;;;;;;;;;;;;;;2.75;100.00;148139.56;5016556;28;20127;-71
2023/02/24 10:30:47;;;;;;;12.10;3.70;;;;;;;2.88;100.00;148173.00;5031067;28;19974;-72
2023/02/24 10:33:24;;;;;;;6.67;3.10;;;;;;;2.82;100.00;148158.88;5031850;28;20108;-72
2023/02/24 10:36:02;;;;;;;10.77;3.87;;;;;;;2.83;100.00;148161.47;5032485;28;20028;-71
2023/02/24 10:38:27;;;;;;;6.53;3.33;;;;;;;2.77;100.00;148146.00;5031590;28;20021;-71
2023/02/24 10:40:57;;;;;;;6.80;3.67;;;;;;;2.87;100.00;148170.44;5031488;28;20135;-71
2023/02/24 10:43:29;;;;;;;12.00;5.13;;;;;;;2.83;100.00;148161.47;5031807;28;20091;-72
2023/02/24 10:46:04;;;;;;;;;;;;;;;2.75;100.00;148140.84;5032136;28;20029;-71
2023/02/24 10:48:39;;;;;;;10.10;4.10;;;;;;;2.83;100.00;148161.47;5031559;28;19917;-71
2023/02/24 10:51:20;;;;;;;9.60;5.23;;;;;;;2.98;100.00;148197.47;5032047;28;20370;-72
2023/02/24 10:54:08;;;;;;;9.57;4.43;;;;;;;2.85;100.00;148165.31;5031779;28;20159;-71
2023/02/24 10:56:43;;;;;;;10.10;4.13;;;;;;;2.88;100.00;148174.31;5031560;28;20655;-72
2023/02/24 11:01:58;;;;;;;10.27;5.10;;;;;;;2.97;100.00;148194.91;5031479;28;20478;-70
2023/02/24 11:07:32;;;;;;;5.43;3.37;;;;;;;2.90;100.00;148179.44;5012121;28;20034;-66
2023/02/24 11:10:11;;;;;;;7.37;4.40;;;;;;;2.98;100.00;148197.47;5011942;28;20478;-70
2023/02/24 11:18:30;;;;;;;11.30;4.70;;;;;;;2.94;100.00;148189.75;5031145;28;20032;-70
2023/02/24 11:21:02;;;;;;;8.93;4.43;;;;;;;3.00;100.00;148203.88;5031705;28;20422;-69
2023/02/24 11:23:33;;;;;;;7.07;3.80;;;;;;;3.09;100.00;148225.78;5031575;28;20112;-70
2023/02/24 11:26:05;;;;;;;10.52;5.13;;;;;;;3.10;100.00;148228.34;5030290;28;20389;-70
2023/02/24 11:28:42;;;;;;;;;;;;;;;3.14;100.00;148238.63;5034149;28;20164;-70
2023/02/24 11:31:16;;;;;;;13.07;4.53;;;;;;;3.15;100.00;148242.53;5035918;28;20268;-70
2023/02/24 11:34:09;;;;;;;11.27;5.97;;;;;;;3.17;100.00;148246.38;5034810;28;20076;-71
2023/02/24 11:36:49;;;;;;;12.13;5.50;;;;;;;3.20;100.00;148255.38;5035247;28;20029;-70
2023/02/24 11:39:21;;;;;;;12.63;5.37;;;;;;;3.26;100.00;148269.50;5035680;28;20036;-70
2023/02/24 11:41:52;;;;;;;9.77;5.47;;;;;;;3.23;100.00;148263.09;5035075;28;20079;-72
2023/02/24 11:44:33;;;;;;;10.17;4.77;;;;;;;3.31;100.00;148282.41;5035110;28;20030;-69
2023/02/24 11:47:06;;;;;;;11.60;5.15;;;;;;;3.27;100.00;148272.13;5035468;28;20377;-71
2023/02/24 11:49:54;;;;;;;8.50;5.10;;;;;;;3.37;100.00;148297.81;5035207;28;20112;-71
2023/02/24 11:52:34;;;;;;;14.07;7.20;;;;;;;3.52;100.00;148336.47;5034578;28;20523;-71
2023/02/24 11:55:02;;;;;;;10.07;4.37;;;;;;;3.61;100.00;148358.31;5034831;28;20033;-69
2023/02/24 11:57:40;;;;;;;16.70;6.83;;;;;;;3.63;100.00;148362.19;5035245;28;20029;-70
2023/02/24 12:00:19;;;;;;;9.97;4.60;;;;;;;3.87;100.00;148423.97;5035267;28;20445;-71
2023/02/24 12:03:11;;;;;;;10.80;4.40;;;;;;;3.99;100.00;148454.88;5034902;28;20029;-70
2023/02/24 12:05:43;;;;;;;13.03;7.07;;;;;;;4.04;100.00;148467.78;5035065;28;20542;-70
2023/02/24 12:08:08;;;;;;;;;;;;;;;4.06;100.00;148472.94;5035700;28;20033;-69
2023/02/24 12:10:48;;;;;;;12.80;4.77;;;;;;;4.08;100.00;148478.06;5034536;28;19916;-71
2023/02/24 12:13:14;;;;;;;9.20;4.90;;;;;;;4.27;100.00;148524.47;5034615;28;20037;-70
2023/02/24 12:16:03;;;;;;;14.13;6.60;;;;;;;4.52;100.00;148588.88;5034330;28;20040;-71
2023/02/24 12:18:36;;;;;;;15.30;7.73;;;;;;;4.65;100.00;148622.38;5033978;28;20140;-71